sensor_id;sensor_type;location;lat;lon;timestamp;P1;durP1;ratioP1;P2;durP2;ratioP2
85809;SDS011;76863;40.816;43.814;2024-03-23T00:54:52;3.70;;;1.85;;
85809;SDS011;76863;40.816;43.814;2024-03-23T00:57:18;3.58;;;2.05;;
85809;SDS011;76863;40.816;43.814;2024-03-23T00:59:43;2.38;;;1.75;;
85809;SDS011;76863;40.816;43.814;2024-03-23T01:02:09;3.53;;;1.80;;
85809;SDS011;76863;40.816;43.814;2024-03-23T01:04:35;2.30;;;1.65;;
85809;SDS011;76863;40.816;43.814;2024-03-23T01:07:03;2.78;;;1.80;;
85809;SDS011;76863;40.816;43.814;2024-03-23T01:09:29;2.42;;;1.60;;
85809;SDS011;76863;40.816;43.814;2024-03-23T01:11:55;2.90;;;1.75;;
85809;SDS011;76863;40.816;43.814;2024-03-23T01:14:21;1.98;;;1.65;;
85809;SDS011;76863;40.816;43.814;2024-03-23T01:16:47;2.90;;;2.00;;
85809;SDS011;76863;40.816;43.814;2024-03-23T01:19:13;2.75;;;1.90;;
85809;SDS011;76863;40.816;43.814;2024-03-23T01:21:38;2.45;;;1.95;;
85809;SDS011;76863;40.816;43.814;2024-03-23T01:24:04;3.72;;;2.05;;
85809;SDS011;76863;40.816;43.814;2024-03-23T01:26:30;3.60;;;1.90;;
85809;SDS011;76863;40.816;43.814;2024-03-23T01:28:56;2.80;;;2.05;;
85809;SDS011;76863;40.816;43.814;2024-03-23T01:31:29;2.83;;;2.03;;
85809;SDS011;76863;40.816;43.814;2024-03-23T01:33:55;3.25;;;2.10;;
85809;SDS011;76863;40.816;43.814;2024-03-23T01:36:20;2.67;;;1.60;;
85809;SDS011;76863;40.816;43.814;2024-03-23T01:38:46;2.83;;;2.03;;
85809;SDS011;76863;40.816;43.814;2024-03-23T01:41:12;2.97;;;2.17;;
85809;SDS011;76863;40.816;43.814;2024-03-23T01:43:40;3.60;;;2.13;;
85809;SDS011;76863;40.816;43.814;2024-03-23T01:46:06;3.00;;;2.03;;
85809;SDS011;76863;40.816;43.814;2024-03-23T01:48:32;3.53;;;2.47;;
85809;SDS011;76863;40.816;43.814;2024-03-23T01:50:58;4.13;;;2.60;;
85809;SDS011;76863;40.816;43.814;2024-03-23T01:53:24;3.85;;;2.60;;
85809;SDS011;76863;40.816;43.814;2024-03-23T01:55:50;2.92;;;2.08;;
85809;SDS011;76863;40.816;43.814;2024-03-23T01:58:16;3.20;;;2.28;;
85809;SDS011;76863;40.816;43.814;2024-03-23T02:00:42;3.30;;;1.98;;
85809;SDS011;76863;40.816;43.814;2024-03-23T02:03:26;2.60;;;1.90;;
85809;SDS011;76863;40.816;43.814;2024-03-23T02:05:55;4.00;;;2.22;;
85809;SDS011;76863;40.816;43.814;2024-03-23T02:08:21;3.78;;;2.10;;
85809;SDS011;76863;40.816;43.814;2024-03-23T02:10:48;3.22;;;1.88;;
85809;SDS011;76863;40.816;43.814;2024-03-23T02:13:15;3.47;;;1.70;;
85809;SDS011;76863;40.816;43.814;2024-03-23T02:15:43;2.53;;;1.60;;
85809;SDS011;76863;40.816;43.814;2024-03-23T02:18:09;2.63;;;1.80;;
85809;SDS011;76863;40.816;43.814;2024-03-23T02:20:36;2.40;;;1.73;;
85809;SDS011;76863;40.816;43.814;2024-03-23T02:23:04;2.33;;;1.80;;
85809;SDS011;76863;40.816;43.814;2024-03-23T02:25:33;3.80;;;1.70;;
85809;SDS011;76863;40.816;43.814;2024-03-23T02:27:59;2.22;;;1.45;;
85809;SDS011;76863;40.816;43.814;2024-03-23T02:30:25;2.55;;;1.70;;
85809;SDS011;76863;40.816;43.814;2024-03-23T02:32:51;2.30;;;1.50;;
85809;SDS011;76863;40.816;43.814;2024-03-23T02:35:17;1.77;;;1.52;;
85809;SDS011;76863;40.816;43.814;2024-03-23T02:37:43;3.05;;;1.83;;
85809;SDS011;76863;40.816;43.814;2024-03-23T02:40:08;2.60;;;1.60;;
85809;SDS011;76863;40.816;43.814;2024-03-23T02:42:34;2.28;;;1.42;;
85809;SDS011;76863;40.816;43.814;2024-03-23T02:45:00;2.92;;;1.65;;
85809;SDS011;76863;40.816;43.814;2024-03-23T02:47:25;2.70;;;1.63;;
85809;SDS011;76863;40.816;43.814;2024-03-23T02:49:51;4.05;;;1.73;;
85809;SDS011;76863;40.816;43.814;2024-03-23T02:52:17;3.45;;;1.70;;
85809;SDS011;76863;40.816;43.814;2024-03-23T02:54:43;2.95;;;1.73;;
85809;SDS011;76863;40.816;43.814;2024-03-23T02:57:10;2.92;;;1.48;;
85809;SDS011;76863;40.816;43.814;2024-03-23T02:59:36;2.60;;;1.50;;
85809;SDS011;76863;40.816;43.814;2024-03-23T03:02:02;1.90;;;1.27;;
85809;SDS011;76863;40.816;43.814;2024-03-23T03:04:29;2.35;;;1.75;;
85809;SDS011;76863;40.816;43.814;2024-03-23T03:06:55;2.05;;;1.60;;
85809;SDS011;76863;40.816;43.814;2024-03-23T03:09:21;1.95;;;1.52;;
85809;SDS011;76863;40.816;43.814;2024-03-23T03:11:47;3.00;;;2.03;;
85809;SDS011;76863;40.816;43.814;2024-03-23T03:14:13;2.65;;;1.63;;
85809;SDS011;76863;40.816;43.814;2024-03-23T03:16:38;3.58;;;1.63;;
85809;SDS011;76863;40.816;43.814;2024-03-23T03:19:04;3.13;;;1.95;;
85809;SDS011;76863;40.816;43.814;2024-03-23T03:21:31;2.70;;;1.70;;
85809;SDS011;76863;40.816;43.814;2024-03-23T03:23:57;2.58;;;1.83;;
85809;SDS011;76863;40.816;43.814;2024-03-23T03:26:23;2.75;;;1.70;;
85809;SDS011;76863;40.816;43.814;2024-03-23T03:28:50;2.60;;;1.70;;
85809;SDS011;76863;40.816;43.814;2024-03-23T03:31:16;2.60;;;1.65;;
85809;SDS011;76863;40.816;43.814;2024-03-23T03:33:42;2.38;;;1.50;;
85809;SDS011;76863;40.816;43.814;2024-03-23T03:36:08;3.00;;;1.45;;
85809;SDS011;76863;40.816;43.814;2024-03-23T03:38:34;2.72;;;2.25;;
85809;SDS011;76863;40.816;43.814;2024-03-23T03:41:03;3.67;;;2.17;;
85809;SDS011;76863;40.816;43.814;2024-03-23T03:43:29;3.80;;;2.30;;
85809;SDS011;76863;40.816;43.814;2024-03-23T03:45:55;3.63;;;2.05;;
85809;SDS011;76863;40.816;43.814;2024-03-23T03:48:24;4.13;;;2.35;;
85809;SDS011;76863;40.816;43.814;2024-03-23T03:50:50;3.45;;;2.60;;
85809;SDS011;76863;40.816;43.814;2024-03-23T03:53:17;3.03;;;2.45;;
85809;SDS011;76863;40.816;43.814;2024-03-23T03:55:42;3.38;;;2.50;;
85809;SDS011;76863;40.816;43.814;2024-03-23T03:58:08;3.45;;;2.33;;
85809;SDS011;76863;40.816;43.814;2024-03-23T04:00:34;3.20;;;2.53;;
85809;SDS011;76863;40.816;43.814;2024-03-23T04:03:00;3.67;;;2.28;;
85809;SDS011;76863;40.816;43.814;2024-03-23T04:05:26;3.78;;;2.50;;
85809;SDS011;76863;40.816;43.814;2024-03-23T04:07:52;4.85;;;2.83;;
85809;SDS011;76863;40.816;43.814;2024-03-23T04:10:19;2.75;;;2.03;;
85809;SDS011;76863;40.816;43.814;2024-03-23T04:12:45;4.32;;;2.55;;
85809;SDS011;76863;40.816;43.814;2024-03-23T04:15:12;6.68;;;3.17;;
85809;SDS011;76863;40.816;43.814;2024-03-23T04:17:37;4.20;;;3.08;;
85809;SDS011;76863;40.816;43.814;2024-03-23T04:20:03;6.90;;;3.13;;
85809;SDS011;76863;40.816;43.814;2024-03-23T04:22:34;8.65;;;4.28;;
85809;SDS011;76863;40.816;43.814;2024-03-23T04:24:59;5.63;;;3.08;;
85809;SDS011;76863;40.816;43.814;2024-03-23T04:27:31;10.55;;;3.63;;
85809;SDS011;76863;40.816;43.814;2024-03-23T04:30:00;5.60;;;3.45;;
85809;SDS011;76863;40.816;43.814;2024-03-23T04:32:27;4.88;;;3.30;;
85809;SDS011;76863;40.816;43.814;2024-03-23T04:34:53;4.60;;;3.33;;
85809;SDS011;76863;40.816;43.814;2024-03-23T04:37:20;5.15;;;3.28;;
85809;SDS011;76863;40.816;43.814;2024-03-23T04:39:46;5.53;;;3.80;;
85809;SDS011;76863;40.816;43.814;2024-03-23T04:42:14;4.82;;;3.10;;
85809;SDS011;76863;40.816;43.814;2024-03-23T04:44:40;5.35;;;3.90;;
85809;SDS011;76863;40.816;43.814;2024-03-23T04:47:07;6.45;;;3.80;;
85809;SDS011;76863;40.816;43.814;2024-03-23T04:49:33;4.57;;;3.65;;
85809;SDS011;76863;40.816;43.814;2024-03-23T04:51:58;8.57;;;5.55;;
85809;SDS011;76863;40.816;43.814;2024-03-23T04:54:24;10.82;;;6.70;;
85809;SDS011;76863;40.816;43.814;2024-03-23T04:56:50;13.65;;;7.22;;
85809;SDS011;76863;40.816;43.814;2024-03-23T04:59:16;8.63;;;5.50;;
85809;SDS011;76863;40.816;43.814;2024-03-23T05:01:41;6.47;;;4.28;;
85809;SDS011;76863;40.816;43.814;2024-03-23T05:04:08;8.05;;;4.95;;
85809;SDS011;76863;40.816;43.814;2024-03-23T05:06:34;5.85;;;3.80;;
85809;SDS011;76863;40.816;43.814;2024-03-23T05:09:00;7.72;;;4.80;;
85809;SDS011;76863;40.816;43.814;2024-03-23T05:11:39;7.85;;;4.25;;
85809;SDS011;76863;40.816;43.814;2024-03-23T05:14:07;8.30;;;4.60;;
85809;SDS011;76863;40.816;43.814;2024-03-23T05:16:33;9.38;;;4.95;;
85809;SDS011;76863;40.816;43.814;2024-03-23T05:18:59;8.25;;;5.00;;
85809;SDS011;76863;40.816;43.814;2024-03-23T05:21:26;7.60;;;4.60;;
85809;SDS011;76863;40.816;43.814;2024-03-23T05:23:53;8.80;;;5.93;;
85809;SDS011;76863;40.816;43.814;2024-03-23T05:26:19;8.57;;;5.32;;
85809;SDS011;76863;40.816;43.814;2024-03-23T05:28:48;11.63;;;6.03;;
85809;SDS011;76863;40.816;43.814;2024-03-23T05:31:22;14.45;;;6.03;;
85809;SDS011;76863;40.816;43.814;2024-03-23T05:33:51;13.43;;;6.45;;
85809;SDS011;76863;40.816;43.814;2024-03-23T05:36:18;10.93;;;5.82;;
85809;SDS011;76863;40.816;43.814;2024-03-23T05:38:44;14.27;;;6.47;;
85809;SDS011;76863;40.816;43.814;2024-03-23T05:41:10;13.13;;;5.85;;
85809;SDS011;76863;40.816;43.814;2024-03-23T05:43:35;12.52;;;5.65;;
85809;SDS011;76863;40.816;43.814;2024-03-23T05:46:01;7.50;;;4.43;;
85809;SDS011;76863;40.816;43.814;2024-03-23T05:48:27;7.35;;;4.00;;
85809;SDS011;76863;40.816;43.814;2024-03-23T05:50:55;5.40;;;3.47;;
85809;SDS011;76863;40.816;43.814;2024-03-23T05:53:23;8.13;;;4.43;;
85809;SDS011;76863;40.816;43.814;2024-03-23T05:55:49;6.10;;;3.78;;
85809;SDS011;76863;40.816;43.814;2024-03-23T05:58:16;4.72;;;3.72;;
85809;SDS011;76863;40.816;43.814;2024-03-23T06:00:42;3.50;;;3.17;;
85809;SDS011;76863;40.816;43.814;2024-03-23T06:03:09;4.07;;;3.25;;
85809;SDS011;76863;40.816;43.814;2024-03-23T06:05:35;8.45;;;4.93;;
85809;SDS011;76863;40.816;43.814;2024-03-23T06:08:04;4.93;;;3.15;;
85809;SDS011;76863;40.816;43.814;2024-03-23T06:10:30;5.03;;;3.28;;
85809;SDS011;76863;40.816;43.814;2024-03-23T06:12:56;6.07;;;2.95;;
85809;SDS011;76863;40.816;43.814;2024-03-23T06:15:24;4.05;;;3.20;;
85809;SDS011;76863;40.816;43.814;2024-03-23T06:17:50;3.17;;;2.42;;
85809;SDS011;76863;40.816;43.814;2024-03-23T06:20:15;3.00;;;2.30;;
85809;SDS011;76863;40.816;43.814;2024-03-23T06:22:41;3.85;;;2.20;;
85809;SDS011;76863;40.816;43.814;2024-03-23T06:25:07;3.50;;;2.38;;
85809;SDS011;76863;40.816;43.814;2024-03-23T06:27:33;4.93;;;2.80;;
85809;SDS011;76863;40.816;43.814;2024-03-23T06:29:59;3.20;;;2.45;;
85809;SDS011;76863;40.816;43.814;2024-03-23T06:32:25;4.15;;;3.00;;
85809;SDS011;76863;40.816;43.814;2024-03-23T06:34:51;3.15;;;2.30;;
85809;SDS011;76863;40.816;43.814;2024-03-23T06:37:17;4.10;;;2.88;;
85809;SDS011;76863;40.816;43.814;2024-03-23T06:39:42;4.05;;;3.40;;
85809;SDS011;76863;40.816;43.814;2024-03-23T06:42:08;3.95;;;3.30;;
85809;SDS011;76863;40.816;43.814;2024-03-23T06:44:34;4.03;;;3.00;;
85809;SDS011;76863;40.816;43.814;2024-03-23T06:46:59;5.53;;;2.95;;
85809;SDS011;76863;40.816;43.814;2024-03-23T06:49:25;5.05;;;3.22;;
85809;SDS011;76863;40.816;43.814;2024-03-23T06:51:51;3.70;;;2.60;;
85809;SDS011;76863;40.816;43.814;2024-03-23T06:54:17;4.57;;;2.40;;
85809;SDS011;76863;40.816;43.814;2024-03-23T06:56:44;4.30;;;2.53;;
85809;SDS011;76863;40.816;43.814;2024-03-23T06:59:10;3.95;;;2.65;;
85809;SDS011;76863;40.816;43.814;2024-03-23T07:01:35;4.18;;;2.55;;
85809;SDS011;76863;40.816;43.814;2024-03-23T07:04:02;3.10;;;2.22;;
85809;SDS011;76863;40.816;43.814;2024-03-23T07:06:31;2.85;;;2.28;;
85809;SDS011;76863;40.816;43.814;2024-03-23T07:08:57;4.65;;;2.50;;
85809;SDS011;76863;40.816;43.814;2024-03-23T07:11:22;3.28;;;2.75;;
85809;SDS011;76863;40.816;43.814;2024-03-23T07:13:52;5.55;;;2.78;;
85809;SDS011;76863;40.816;43.814;2024-03-23T07:16:24;4.65;;;2.80;;
85809;SDS011;76863;40.816;43.814;2024-03-23T07:18:52;4.03;;;2.95;;
85809;SDS011;76863;40.816;43.814;2024-03-23T07:21:17;3.80;;;2.65;;
85809;SDS011;76863;40.816;43.814;2024-03-23T07:23:43;3.50;;;2.53;;
85809;SDS011;76863;40.816;43.814;2024-03-23T07:26:12;2.97;;;2.40;;
85809;SDS011;76863;40.816;43.814;2024-03-23T07:28:38;6.40;;;3.10;;
85809;SDS011;76863;40.816;43.814;2024-03-23T07:31:08;3.60;;;2.70;;
85809;SDS011;76863;40.816;43.814;2024-03-23T07:33:41;6.95;;;3.58;;
85809;SDS011;76863;40.816;43.814;2024-03-23T07:36:08;3.38;;;2.42;;
85809;SDS011;76863;40.816;43.814;2024-03-23T07:38:34;4.10;;;2.58;;
85809;SDS011;76863;40.816;43.814;2024-03-23T07:41:06;5.30;;;2.40;;
85809;SDS011;76863;40.816;43.814;2024-03-23T07:43:33;6.80;;;3.88;;
85809;SDS011;76863;40.816;43.814;2024-03-23T07:45:59;3.53;;;2.40;;
85809;SDS011;76863;40.816;43.814;2024-03-23T07:48:25;3.38;;;2.00;;
85809;SDS011;76863;40.816;43.814;2024-03-23T07:51:01;4.15;;;1.90;;
85809;SDS011;76863;40.816;43.814;2024-03-23T07:53:28;2.58;;;2.17;;
85809;SDS011;76863;40.816;43.814;2024-03-23T07:55:58;4.78;;;2.70;;
85809;SDS011;76863;40.816;43.814;2024-03-23T07:58:27;4.38;;;2.80;;
85809;SDS011;76863;40.816;43.814;2024-03-23T08:00:54;4.22;;;2.65;;
85809;SDS011;76863;40.816;43.814;2024-03-23T08:03:20;3.25;;;2.72;;
85809;SDS011;76863;40.816;43.814;2024-03-23T08:05:45;4.15;;;2.70;;
85809;SDS011;76863;40.816;43.814;2024-03-23T08:08:11;4.50;;;3.05;;
85809;SDS011;76863;40.816;43.814;2024-03-23T08:10:37;4.50;;;2.80;;
85809;SDS011;76863;40.816;43.814;2024-03-23T08:13:12;4.35;;;2.75;;
85809;SDS011;76863;40.816;43.814;2024-03-23T08:15:38;4.45;;;2.65;;
85809;SDS011;76863;40.816;43.814;2024-03-23T08:18:04;3.63;;;2.70;;
85809;SDS011;76863;40.816;43.814;2024-03-23T08:20:30;4.40;;;2.90;;
85809;SDS011;76863;40.816;43.814;2024-03-23T08:22:55;3.83;;;2.70;;
85809;SDS011;76863;40.816;43.814;2024-03-23T08:25:21;3.92;;;2.85;;
85809;SDS011;76863;40.816;43.814;2024-03-23T08:27:47;3.05;;;2.58;;
85809;SDS011;76863;40.816;43.814;2024-03-23T08:30:12;3.78;;;2.80;;
85809;SDS011;76863;40.816;43.814;2024-03-23T08:32:38;4.30;;;2.90;;
85809;SDS011;76863;40.816;43.814;2024-03-23T08:35:04;4.00;;;2.72;;
85809;SDS011;76863;40.816;43.814;2024-03-23T08:37:30;3.55;;;2.55;;
85809;SDS011;76863;40.816;43.814;2024-03-23T08:39:56;6.07;;;2.97;;
85809;SDS011;76863;40.816;43.814;2024-03-23T08:42:22;4.65;;;2.95;;
85809;SDS011;76863;40.816;43.814;2024-03-23T08:44:47;2.67;;;2.13;;
85809;SDS011;76863;40.816;43.814;2024-03-23T08:47:16;4.20;;;2.65;;
85809;SDS011;76863;40.816;43.814;2024-03-23T08:49:41;7.80;;;5.00;;
85809;SDS011;76863;40.816;43.814;2024-03-23T08:52:08;4.90;;;3.30;;
85809;SDS011;76863;40.816;43.814;2024-03-23T08:54:33;6.45;;;2.90;;
85809;SDS011;76863;40.816;43.814;2024-03-23T08:56:59;5.85;;;2.88;;
85809;SDS011;76863;40.816;43.814;2024-03-23T08:59:25;4.75;;;3.20;;
85809;SDS011;76863;40.816;43.814;2024-03-23T09:01:52;5.07;;;3.50;;
85809;SDS011;76863;40.816;43.814;2024-03-23T09:04:18;8.70;;;4.10;;
85809;SDS011;76863;40.816;43.814;2024-03-23T09:06:43;15.68;;;5.95;;
85809;SDS011;76863;40.816;43.814;2024-03-23T09:09:09;10.27;;;5.90;;
85809;SDS011;76863;40.816;43.814;2024-03-23T09:11:35;8.73;;;4.57;;
85809;SDS011;76863;40.816;43.814;2024-03-23T09:14:00;7.28;;;4.28;;
85809;SDS011;76863;40.816;43.814;2024-03-23T09:16:26;8.07;;;4.75;;
85809;SDS011;76863;40.816;43.814;2024-03-23T09:18:52;11.18;;;6.07;;
85809;SDS011;76863;40.816;43.814;2024-03-23T09:21:18;9.75;;;5.90;;
85809;SDS011;76863;40.816;43.814;2024-03-23T09:23:44;8.75;;;5.20;;
85809;SDS011;76863;40.816;43.814;2024-03-23T09:26:10;7.38;;;4.90;;
85809;SDS011;76863;40.816;43.814;2024-03-23T09:28:36;6.97;;;4.82;;
85809;SDS011;76863;40.816;43.814;2024-03-23T09:31:05;8.40;;;4.65;;
85809;SDS011;76863;40.816;43.814;2024-03-23T09:33:41;9.05;;;4.57;;
85809;SDS011;76863;40.816;43.814;2024-03-23T09:36:07;4.93;;;4.05;;
85809;SDS011;76863;40.816;43.814;2024-03-23T09:38:33;6.63;;;4.45;;
85809;SDS011;76863;40.816;43.814;2024-03-23T09:41:06;6.05;;;4.70;;
85809;SDS011;76863;40.816;43.814;2024-03-23T09:43:32;5.00;;;3.92;;
85809;SDS011;76863;40.816;43.814;2024-03-23T09:45:58;5.18;;;4.32;;
85809;SDS011;76863;40.816;43.814;2024-03-23T09:48:26;5.70;;;4.00;;
85809;SDS011;76863;40.816;43.814;2024-03-23T09:50:52;7.18;;;4.55;;
85809;SDS011;76863;40.816;43.814;2024-03-23T09:53:18;5.68;;;4.22;;
85809;SDS011;76863;40.816;43.814;2024-03-23T09:55:44;6.65;;;4.43;;
85809;SDS011;76863;40.816;43.814;2024-03-23T09:58:14;6.80;;;4.45;;
85809;SDS011;76863;40.816;43.814;2024-03-23T10:00:41;6.80;;;4.47;;
85809;SDS011;76863;40.816;43.814;2024-03-23T10:03:07;6.50;;;3.97;;
85809;SDS011;76863;40.816;43.814;2024-03-23T10:10:40;6.53;;;4.22;;
85809;SDS011;76863;40.816;43.814;2024-03-23T10:13:06;10.65;;;6.55;;
85809;SDS011;76863;40.816;43.814;2024-03-23T10:15:35;7.68;;;4.80;;
85809;SDS011;76863;40.816;43.814;2024-03-23T10:18:20;7.78;;;5.35;;
85809;SDS011;76863;40.816;43.814;2024-03-23T10:23:33;5.00;;;4.25;;
85809;SDS011;76863;40.816;43.814;2024-03-23T10:31:19;5.40;;;4.28;;
85809;SDS011;76863;40.816;43.814;2024-03-23T10:33:46;5.85;;;4.43;;
85809;SDS011;76863;40.816;43.814;2024-03-23T10:36:12;5.80;;;4.13;;
85809;SDS011;76863;40.816;43.814;2024-03-23T10:38:42;5.07;;;3.65;;
85809;SDS011;76863;40.816;43.814;2024-03-23T10:41:09;6.30;;;3.90;;
85809;SDS011;76863;40.816;43.814;2024-03-23T10:43:36;4.88;;;4.20;;
85809;SDS011;76863;40.816;43.814;2024-03-23T10:46:04;4.50;;;3.30;;
85809;SDS011;76863;40.816;43.814;2024-03-23T10:48:33;3.78;;;3.30;;
85809;SDS011;76863;40.816;43.814;2024-03-23T10:50:59;5.07;;;3.92;;
85809;SDS011;76863;40.816;43.814;2024-03-23T10:53:25;6.03;;;3.75;;
85809;SDS011;76863;40.816;43.814;2024-03-23T10:55:52;4.78;;;3.88;;
85809;SDS011;76863;40.816;43.814;2024-03-23T10:58:21;6.22;;;4.75;;
85809;SDS011;76863;40.816;43.814;2024-03-23T11:00:55;7.13;;;5.63;;
85809;SDS011;76863;40.816;43.814;2024-03-23T11:03:33;8.20;;;5.35;;
85809;SDS011;76863;40.816;43.814;2024-03-23T11:06:03;5.15;;;4.03;;
85809;SDS011;76863;40.816;43.814;2024-03-23T11:08:40;5.28;;;3.65;;
85809;SDS011;76863;40.816;43.814;2024-03-23T11:13:53;5.30;;;3.85;;
85809;SDS011;76863;40.816;43.814;2024-03-23T11:16:26;9.10;;;4.13;;
85809;SDS011;76863;40.816;43.814;2024-03-23T11:22:01;4.72;;;3.42;;
85809;SDS011;76863;40.816;43.814;2024-03-23T11:24:28;5.38;;;3.83;;
85809;SDS011;76863;40.816;43.814;2024-03-23T11:26:54;5.50;;;3.20;;
85809;SDS011;76863;40.816;43.814;2024-03-23T11:29:19;4.32;;;3.30;;
85809;SDS011;76863;40.816;43.814;2024-03-23T11:31:49;6.97;;;3.05;;
85809;SDS011;76863;40.816;43.814;2024-03-23T11:34:16;5.78;;;3.20;;
85809;SDS011;76863;40.816;43.814;2024-03-23T11:36:42;3.10;;;2.60;;
85809;SDS011;76863;40.816;43.814;2024-03-23T11:39:12;8.68;;;3.72;;
85809;SDS011;76863;40.816;43.814;2024-03-23T11:44:21;5.53;;;3.55;;
85809;SDS011;76863;40.816;43.814;2024-03-23T11:46:48;5.90;;;3.35;;
85809;SDS011;76863;40.816;43.814;2024-03-23T11:49:27;4.63;;;3.22;;
85809;SDS011;76863;40.816;43.814;2024-03-23T11:51:54;5.10;;;3.35;;
85809;SDS011;76863;40.816;43.814;2024-03-23T11:54:21;5.88;;;3.90;;
85809;SDS011;76863;40.816;43.814;2024-03-23T11:56:54;4.68;;;3.20;;
85809;SDS011;76863;40.816;43.814;2024-03-23T11:59:38;4.78;;;2.92;;
85809;SDS011;76863;40.816;43.814;2024-03-23T12:02:12;4.78;;;3.30;;
85809;SDS011;76863;40.816;43.814;2024-03-23T12:04:41;4.05;;;3.03;;
85809;SDS011;76863;40.816;43.814;2024-03-23T12:07:17;4.60;;;3.38;;
85809;SDS011;76863;40.816;43.814;2024-03-23T12:09:44;3.25;;;2.88;;
85809;SDS011;76863;40.816;43.814;2024-03-23T12:12:17;4.80;;;3.28;;
85809;SDS011;76863;40.816;43.814;2024-03-23T12:14:43;3.20;;;2.75;;
85809;SDS011;76863;40.816;43.814;2024-03-23T12:17:10;4.95;;;3.40;;
85809;SDS011;76863;40.816;43.814;2024-03-23T12:22:04;9.45;;;6.03;;
85809;SDS011;76863;40.816;43.814;2024-03-23T12:24:32;8.02;;;4.32;;
85809;SDS011;76863;40.816;43.814;2024-03-23T12:27:04;5.00;;;3.85;;
85809;SDS011;76863;40.816;43.814;2024-03-23T12:29:33;6.85;;;3.90;;
85809;SDS011;76863;40.816;43.814;2024-03-23T12:32:00;4.85;;;3.65;;
85809;SDS011;76863;40.816;43.814;2024-03-23T12:39:17;4.50;;;3.10;;
85809;SDS011;76863;40.816;43.814;2024-03-23T12:41:43;5.13;;;3.33;;
85809;SDS011;76863;40.816;43.814;2024-03-23T12:44:09;4.72;;;3.72;;
85809;SDS011;76863;40.816;43.814;2024-03-23T12:46:37;9.52;;;5.05;;
85809;SDS011;76863;40.816;43.814;2024-03-23T12:49:03;19.25;;;8.85;;
85809;SDS011;76863;40.816;43.814;2024-03-23T12:51:30;17.23;;;9.63;;
85809;SDS011;76863;40.816;43.814;2024-03-23T12:53:56;14.65;;;8.73;;
85809;SDS011;76863;40.816;43.814;2024-03-23T12:56:22;18.02;;;11.18;;
85809;SDS011;76863;40.816;43.814;2024-03-23T12:58:47;15.25;;;8.13;;
85809;SDS011;76863;40.816;43.814;2024-03-23T13:01:16;8.95;;;5.45;;
85809;SDS011;76863;40.816;43.814;2024-03-23T13:03:42;5.53;;;4.07;;
85809;SDS011;76863;40.816;43.814;2024-03-23T13:06:10;6.57;;;3.67;;
85809;SDS011;76863;40.816;43.814;2024-03-23T13:08:36;4.55;;;3.20;;
85809;SDS011;76863;40.816;43.814;2024-03-23T13:11:01;3.38;;;2.55;;
85809;SDS011;76863;40.816;43.814;2024-03-23T13:13:28;3.95;;;2.72;;
85809;SDS011;76863;40.816;43.814;2024-03-23T13:15:54;3.50;;;2.40;;
85809;SDS011;76863;40.816;43.814;2024-03-23T13:18:19;2.92;;;2.35;;
85809;SDS011;76863;40.816;43.814;2024-03-23T13:20:45;5.70;;;3.15;;
85809;SDS011;76863;40.816;43.814;2024-03-23T13:23:11;3.38;;;2.63;;
85809;SDS011;76863;40.816;43.814;2024-03-23T13:25:36;4.03;;;2.67;;
85809;SDS011;76863;40.816;43.814;2024-03-23T13:28:02;4.05;;;2.75;;
85809;SDS011;76863;40.816;43.814;2024-03-23T13:30:29;3.88;;;2.85;;
85809;SDS011;76863;40.816;43.814;2024-03-23T13:32:57;2.97;;;2.22;;
85809;SDS011;76863;40.816;43.814;2024-03-23T13:35:22;3.13;;;2.65;;
85809;SDS011;76863;40.816;43.814;2024-03-23T13:37:48;15.85;;;3.45;;
85809;SDS011;76863;40.816;43.814;2024-03-23T13:40:16;19.38;;;4.22;;
85809;SDS011;76863;40.816;43.814;2024-03-23T13:42:42;5.10;;;2.58;;
85809;SDS011;76863;40.816;43.814;2024-03-23T13:45:08;3.70;;;2.88;;
85809;SDS011;76863;40.816;43.814;2024-03-23T13:47:36;3.60;;;2.85;;
85809;SDS011;76863;40.816;43.814;2024-03-23T13:50:03;5.93;;;3.00;;
85809;SDS011;76863;40.816;43.814;2024-03-23T13:52:29;5.85;;;3.63;;
85809;SDS011;76863;40.816;43.814;2024-03-23T13:54:56;4.88;;;3.50;;
85809;SDS011;76863;40.816;43.814;2024-03-23T13:57:22;4.45;;;3.17;;
85809;SDS011;76863;40.816;43.814;2024-03-23T13:59:48;5.95;;;3.78;;
85809;SDS011;76863;40.816;43.814;2024-03-23T14:02:14;5.80;;;3.28;;
85809;SDS011;76863;40.816;43.814;2024-03-23T14:04:40;5.38;;;3.28;;
85809;SDS011;76863;40.816;43.814;2024-03-23T14:07:05;5.88;;;3.88;;
85809;SDS011;76863;40.816;43.814;2024-03-23T14:09:32;5.75;;;3.60;;
85809;SDS011;76863;40.816;43.814;2024-03-23T14:11:58;10.68;;;4.72;;
85809;SDS011;76863;40.816;43.814;2024-03-23T14:14:25;12.05;;;7.68;;
85809;SDS011;76863;40.816;43.814;2024-03-23T14:16:51;11.90;;;8.23;;
85809;SDS011;76863;40.816;43.814;2024-03-23T14:19:18;12.52;;;8.18;;
85809;SDS011;76863;40.816;43.814;2024-03-23T14:21:44;17.35;;;8.77;;
85809;SDS011;76863;40.816;43.814;2024-03-23T14:24:10;11.77;;;7.72;;
85809;SDS011;76863;40.816;43.814;2024-03-23T14:26:35;13.07;;;8.20;;
85809;SDS011;76863;40.816;43.814;2024-03-23T14:29:01;11.38;;;7.45;;
85809;SDS011;76863;40.816;43.814;2024-03-23T14:31:28;12.40;;;7.72;;
85809;SDS011;76863;40.816;43.814;2024-03-23T14:33:54;12.23;;;7.68;;
85809;SDS011;76863;40.816;43.814;2024-03-23T14:36:19;15.68;;;7.93;;
85809;SDS011;76863;40.816;43.814;2024-03-23T14:38:48;17.35;;;8.88;;
85809;SDS011;76863;40.816;43.814;2024-03-23T14:41:14;13.10;;;8.50;;
85809;SDS011;76863;40.816;43.814;2024-03-23T14:43:40;14.55;;;9.15;;
85809;SDS011;76863;40.816;43.814;2024-03-23T14:46:12;14.60;;;8.43;;
85809;SDS011;76863;40.816;43.814;2024-03-23T14:48:39;9.77;;;6.72;;
85809;SDS011;76863;40.816;43.814;2024-03-23T14:51:06;12.82;;;8.10;;
85809;SDS011;76863;40.816;43.814;2024-03-23T14:53:34;14.93;;;8.98;;
85809;SDS011;76863;40.816;43.814;2024-03-23T14:56:05;13.52;;;9.00;;
85809;SDS011;76863;40.816;43.814;2024-03-23T14:58:31;11.02;;;7.07;;
85809;SDS011;76863;40.816;43.814;2024-03-23T15:01:01;12.65;;;7.18;;
85809;SDS011;76863;40.816;43.814;2024-03-23T15:03:34;9.20;;;6.03;;
85809;SDS011;76863;40.816;43.814;2024-03-23T15:05:59;10.38;;;6.93;;
85809;SDS011;76863;40.816;43.814;2024-03-23T15:08:26;13.15;;;8.18;;
85809;SDS011;76863;40.816;43.814;2024-03-23T15:10:53;14.93;;;8.35;;
85809;SDS011;76863;40.816;43.814;2024-03-23T15:13:19;10.55;;;6.22;;
85809;SDS011;76863;40.816;43.814;2024-03-23T15:15:48;7.30;;;4.97;;
85809;SDS011;76863;40.816;43.814;2024-03-23T15:18:14;6.97;;;4.72;;
85809;SDS011;76863;40.816;43.814;2024-03-23T15:20:58;7.10;;;4.35;;
85809;SDS011;76863;40.816;43.814;2024-03-23T15:23:28;6.90;;;4.70;;
85809;SDS011;76863;40.816;43.814;2024-03-23T15:25:58;6.18;;;4.32;;
85809;SDS011;76863;40.816;43.814;2024-03-23T15:28:25;9.32;;;5.68;;
85809;SDS011;76863;40.816;43.814;2024-03-23T15:31:05;7.45;;;4.88;;
85809;SDS011;76863;40.816;43.814;2024-03-23T15:33:31;5.97;;;4.07;;
85809;SDS011;76863;40.816;43.814;2024-03-23T15:36:00;7.00;;;4.75;;
85809;SDS011;76863;40.816;43.814;2024-03-23T15:38:29;6.57;;;4.30;;
85809;SDS011;76863;40.816;43.814;2024-03-23T15:40:56;7.43;;;4.93;;
85809;SDS011;76863;40.816;43.814;2024-03-23T15:43:22;5.55;;;3.72;;
85809;SDS011;76863;40.816;43.814;2024-03-23T15:45:54;6.60;;;4.57;;
85809;SDS011;76863;40.816;43.814;2024-03-23T15:48:20;6.63;;;4.38;;
85809;SDS011;76863;40.816;43.814;2024-03-23T15:50:56;7.40;;;4.88;;
85809;SDS011;76863;40.816;43.814;2024-03-23T15:53:23;7.53;;;3.95;;
85809;SDS011;76863;40.816;43.814;2024-03-23T15:55:59;6.93;;;4.30;;